sensor_id;sensor_type;location;lat;lon;timestamp;temperature;humidity
20866;DHT22;10593;48.398;10.698;2024-01-30T00:01:51;4.40;54.40
20866;DHT22;10593;48.398;10.698;2024-01-30T00:04:16;4.40;54.30
20866;DHT22;10593;48.398;10.698;2024-01-30T00:06:43;4.40;54.40
20866;DHT22;10593;48.398;10.698;2024-01-30T00:09:09;4.40;54.40
20866;DHT22;10593;48.398;10.698;2024-01-30T00:11:36;4.40;54.40
20866;DHT22;10593;48.398;10.698;2024-01-30T00:14:03;4.30;54.30
20866;DHT22;10593;48.398;10.698;2024-01-30T00:16:29;4.30;54.30
20866;DHT22;10593;48.398;10.698;2024-01-30T00:18:55;4.40;54.40
20866;DHT22;10593;48.398;10.698;2024-01-30T00:21:20;4.30;54.30
20866;DHT22;10593;48.398;10.698;2024-01-30T00:23:46;4.30;54.30
20866;DHT22;10593;48.398;10.698;2024-01-30T00:26:13;4.30;54.30
20866;DHT22;10593;48.398;10.698;2024-01-30T00:28:40;4.30;54.40
20866;DHT22;10593;48.398;10.698;2024-01-30T00:31:06;4.30;54.40
20866;DHT22;10593;48.398;10.698;2024-01-30T00:33:32;4.30;54.40
20866;DHT22;10593;48.398;10.698;2024-01-30T00:35:58;4.30;54.40
20866;DHT22;10593;48.398;10.698;2024-01-30T00:38:23;4.30;54.40
20866;DHT22;10593;48.398;10.698;2024-01-30T00:40:49;4.20;54.30
20866;DHT22;10593;48.398;10.698;2024-01-30T00:43:16;4.20;54.20
20866;DHT22;10593;48.398;10.698;2024-01-30T00:45:43;4.20;54.20
20866;DHT22;10593;48.398;10.698;2024-01-30T00:48:09;4.20;54.20
20866;DHT22;10593;48.398;10.698;2024-01-30T00:50:35;4.20;54.10
20866;DHT22;10593;48.398;10.698;2024-01-30T00:53:00;4.20;54.10
20866;DHT22;10593;48.398;10.698;2024-01-30T00:55:26;4.20;54.10
20866;DHT22;10593;48.398;10.698;2024-01-30T00:57:52;4.20;54.10
20866;DHT22;10593;48.398;10.698;2024-01-30T01:00:17;4.20;54.10
20866;DHT22;10593;48.398;10.698;2024-01-30T01:02:43;4.20;54.10
20866;DHT22;10593;48.398;10.698;2024-01-30T01:05:10;4.10;54.10
20866;DHT22;10593;48.398;10.698;2024-01-30T01:07:35;4.10;54.10
20866;DHT22;10593;48.398;10.698;2024-01-30T01:10:01;4.10;54.10
20866;DHT22;10593;48.398;10.698;2024-01-30T01:12:27;4.10;54.10
20866;DHT22;10593;48.398;10.698;2024-01-30T01:14:53;4.10;54.10
20866;DHT22;10593;48.398;10.698;2024-01-30T01:17:19;4.10;54.60
20866;DHT22;10593;48.398;10.698;2024-01-30T01:19:45;4.10;54.10
20866;DHT22;10593;48.398;10.698;2024-01-30T01:22:11;4.10;54.10
20866;DHT22;10593;48.398;10.698;2024-01-30T01:24:36;4.10;54.10
20866;DHT22;10593;48.398;10.698;2024-01-30T01:27:02;4.10;54.10
20866;DHT22;10593;48.398;10.698;2024-01-30T01:29:28;4.00;54.00
20866;DHT22;10593;48.398;10.698;2024-01-30T01:31:57;4.00;54.00
20866;DHT22;10593;48.398;10.698;2024-01-30T01:34:24;4.00;54.00
20866;DHT22;10593;48.398;10.698;2024-01-30T01:36:50;4.00;54.00
20866;DHT22;10593;48.398;10.698;2024-01-30T01:39:16;4.00;54.00
20866;DHT22;10593;48.398;10.698;2024-01-30T01:41:43;3.90;54.00
20866;DHT22;10593;48.398;10.698;2024-01-30T01:44:09;3.90;53.90
20866;DHT22;10593;48.398;10.698;2024-01-30T01:46:35;3.90;53.90
20866;DHT22;10593;48.398;10.698;2024-01-30T01:49:03;4.00;54.00
20866;DHT22;10593;48.398;10.698;2024-01-30T01:51:31;3.90;53.90
20866;DHT22;10593;48.398;10.698;2024-01-30T01:54:03;3.90;53.90
20866;DHT22;10593;48.398;10.698;2024-01-30T01:56:31;3.90;53.90
20866;DHT22;10593;48.398;10.698;2024-01-30T01:59:00;3.90;53.90
20866;DHT22;10593;48.398;10.698;2024-01-30T02:01:31;3.90;53.90
20866;DHT22;10593;48.398;10.698;2024-01-30T02:03:58;3.90;54.00
20866;DHT22;10593;48.398;10.698;2024-01-30T02:06:25;3.80;53.90
20866;DHT22;10593;48.398;10.698;2024-01-30T02:08:51;3.80;53.80
20866;DHT22;10593;48.398;10.698;2024-01-30T02:11:17;3.80;53.90
20866;DHT22;10593;48.398;10.698;2024-01-30T02:13:44;3.80;53.80
20866;DHT22;10593;48.398;10.698;2024-01-30T02:16:09;3.80;53.80
20866;DHT22;10593;48.398;10.698;2024-01-30T02:18:35;3.80;53.90
20866;DHT22;10593;48.398;10.698;2024-01-30T02:21:07;3.80;53.80
20866;DHT22;10593;48.398;10.698;2024-01-30T02:23:34;3.80;53.80
20866;DHT22;10593;48.398;10.698;2024-01-30T02:26:00;3.80;53.80
20866;DHT22;10593;48.398;10.698;2024-01-30T02:28:26;3.80;53.80
20866;DHT22;10593;48.398;10.698;2024-01-30T02:30:53;3.80;53.90
20866;DHT22;10593;48.398;10.698;2024-01-30T02:33:19;3.70;53.80
20866;DHT22;10593;48.398;10.698;2024-01-30T02:35:47;3.70;53.80
20866;DHT22;10593;48.398;10.698;2024-01-30T02:38:13;3.70;54.30
20866;DHT22;10593;48.398;10.698;2024-01-30T02:40:39;3.70;53.80
20866;DHT22;10593;48.398;10.698;2024-01-30T02:43:05;3.70;53.80
20866;DHT22;10593;48.398;10.698;2024-01-30T02:45:30;3.70;53.80
20866;DHT22;10593;48.398;10.698;2024-01-30T02:47:56;3.70;53.80
20866;DHT22;10593;48.398;10.698;2024-01-30T02:50:22;3.70;53.80
20866;DHT22;10593;48.398;10.698;2024-01-30T02:52:47;3.70;53.80
20866;DHT22;10593;48.398;10.698;2024-01-30T02:55:13;3.70;53.80
20866;DHT22;10593;48.398;10.698;2024-01-30T02:57:39;3.60;53.70
20866;DHT22;10593;48.398;10.698;2024-01-30T03:00:05;3.70;53.80
20866;DHT22;10593;48.398;10.698;2024-01-30T03:02:33;3.70;53.80
20866;DHT22;10593;48.398;10.698;2024-01-30T03:04:59;3.60;53.70
20866;DHT22;10593;48.398;10.698;2024-01-30T03:07:25;3.60;53.70
20866;DHT22;10593;48.398;10.698;2024-01-30T03:09:51;3.60;53.70
20866;DHT22;10593;48.398;10.698;2024-01-30T03:12:17;3.60;53.70
20866;DHT22;10593;48.398;10.698;2024-01-30T03:14:42;3.60;53.70
20866;DHT22;10593;48.398;10.698;2024-01-30T03:17:08;3.60;53.70
20866;DHT22;10593;48.398;10.698;2024-01-30T03:19:33;3.60;53.70
20866;DHT22;10593;48.398;10.698;2024-01-30T03:21:59;3.60;53.70
20866;DHT22;10593;48.398;10.698;2024-01-30T03:24:25;3.60;53.70
20866;DHT22;10593;48.398;10.698;2024-01-30T03:26:51;3.50;53.60
20866;DHT22;10593;48.398;10.698;2024-01-30T03:29:16;3.60;53.70
20866;DHT22;10593;48.398;10.698;2024-01-30T03:31:42;3.60;53.70
20866;DHT22;10593;48.398;10.698;2024-01-30T03:34:08;3.50;53.60
20866;DHT22;10593;48.398;10.698;2024-01-30T03:36:33;3.50;53.60
20866;DHT22;10593;48.398;10.698;2024-01-30T03:39:00;3.50;53.70
20866;DHT22;10593;48.398;10.698;2024-01-30T03:41:26;3.50;53.60
20866;DHT22;10593;48.398;10.698;2024-01-30T03:43:52;3.50;53.70
20866;DHT22;10593;48.398;10.698;2024-01-30T03:46:17;3.50;53.70
20866;DHT22;10593;48.398;10.698;2024-01-30T03:48:43;3.50;53.60
20866;DHT22;10593;48.398;10.698;2024-01-30T03:51:09;3.40;53.60
20866;DHT22;10593;48.398;10.698;2024-01-30T03:53:43;3.40;53.60
20866;DHT22;10593;48.398;10.698;2024-01-30T03:56:09;3.40;53.60
20866;DHT22;10593;48.398;10.698;2024-01-30T03:58:35;3.40;53.50
20866;DHT22;10593;48.398;10.698;2024-01-30T04:01:01;3.40;53.50
20866;DHT22;10593;48.398;10.698;2024-01-30T04:03:27;3.40;53.60
20866;DHT22;10593;48.398;10.698;2024-01-30T04:05:53;3.40;53.60
20866;DHT22;10593;48.398;10.698;2024-01-30T04:08:19;3.40;53.50
20866;DHT22;10593;48.398;10.698;2024-01-30T04:10:45;3.40;53.50
20866;DHT22;10593;48.398;10.698;2024-01-30T04:13:11;3.40;53.60
20866;DHT22;10593;48.398;10.698;2024-01-30T04:15:37;3.40;53.60
20866;DHT22;10593;48.398;10.698;2024-01-30T04:18:03;3.40;53.60
20866;DHT22;10593;48.398;10.698;2024-01-30T04:20:29;3.30;53.60
20866;DHT22;10593;48.398;10.698;2024-01-30T04:22:55;3.30;53.60
20866;DHT22;10593;48.398;10.698;2024-01-30T04:25:20;3.30;53.60
20866;DHT22;10593;48.398;10.698;2024-01-30T04:27:46;3.30;53.70
20866;DHT22;10593;48.398;10.698;2024-01-30T04:30:12;3.30;53.70
20866;DHT22;10593;48.398;10.698;2024-01-30T04:32:38;3.30;53.70
20866;DHT22;10593;48.398;10.698;2024-01-30T04:35:04;3.30;53.70
20866;DHT22;10593;48.398;10.698;2024-01-30T04:37:30;3.30;53.70
20866;DHT22;10593;48.398;10.698;2024-01-30T04:39:56;3.30;53.70
20866;DHT22;10593;48.398;10.698;2024-01-30T04:42:22;3.30;53.70
20866;DHT22;10593;48.398;10.698;2024-01-30T04:44:47;3.30;53.70
20866;DHT22;10593;48.398;10.698;2024-01-30T04:47:13;3.30;53.70
20866;DHT22;10593;48.398;10.698;2024-01-30T04:49:39;3.30;53.70
20866;DHT22;10593;48.398;10.698;2024-01-30T04:52:06;3.30;53.70
20866;DHT22;10593;48.398;10.698;2024-01-30T04:54:32;3.30;53.70
20866;DHT22;10593;48.398;10.698;2024-01-30T04:56:58;3.30;53.70
20866;DHT22;10593;48.398;10.698;2024-01-30T04:59:24;3.30;53.60
20866;DHT22;10593;48.398;10.698;2024-01-30T05:01:50;3.20;53.50
20866;DHT22;10593;48.398;10.698;2024-01-30T05:04:15;3.20;53.50
20866;DHT22;10593;48.398;10.698;2024-01-30T05:06:41;3.20;53.50
20866;DHT22;10593;48.398;10.698;2024-01-30T05:09:07;3.20;53.50
20866;DHT22;10593;48.398;10.698;2024-01-30T05:11:37;3.20;53.50
20866;DHT22;10593;48.398;10.698;2024-01-30T05:14:03;3.20;53.50
20866;DHT22;10593;48.398;10.698;2024-01-30T05:16:29;3.20;53.50
20866;DHT22;10593;48.398;10.698;2024-01-30T05:18:55;3.20;53.50
20866;DHT22;10593;48.398;10.698;2024-01-30T05:21:21;3.20;53.50
20866;DHT22;10593;48.398;10.698;2024-01-30T05:23:46;3.20;53.50
20866;DHT22;10593;48.398;10.698;2024-01-30T05:26:12;3.20;53.50
20866;DHT22;10593;48.398;10.698;2024-01-30T05:28:37;3.10;53.50
20866;DHT22;10593;48.398;10.698;2024-01-30T05:31:03;3.20;53.50
20866;DHT22;10593;48.398;10.698;2024-01-30T05:33:29;3.20;53.50
20866;DHT22;10593;48.398;10.698;2024-01-30T05:35:54;3.20;53.60
20866;DHT22;10593;48.398;10.698;2024-01-30T05:38:20;3.20;53.60
20866;DHT22;10593;48.398;10.698;2024-01-30T05:40:46;3.10;53.60
20866;DHT22;10593;48.398;10.698;2024-01-30T05:43:12;3.10;53.60
20866;DHT22;10593;48.398;10.698;2024-01-30T05:45:38;3.10;53.60
20866;DHT22;10593;48.398;10.698;2024-01-30T05:48:04;3.10;53.60
20866;DHT22;10593;48.398;10.698;2024-01-30T05:50:30;3.10;53.50
20866;DHT22;10593;48.398;10.698;2024-01-30T05:52:56;3.10;53.50
20866;DHT22;10593;48.398;10.698;2024-01-30T05:55:22;3.10;53.50
20866;DHT22;10593;48.398;10.698;2024-01-30T05:57:47;3.10;53.50
20866;DHT22;10593;48.398;10.698;2024-01-30T06:00:13;3.10;53.50
20866;DHT22;10593;48.398;10.698;2024-01-30T06:02:39;3.00;53.40
20866;DHT22;10593;48.398;10.698;2024-01-30T06:05:05;3.00;53.40
20866;DHT22;10593;48.398;10.698;2024-01-30T06:07:31;3.00;53.40
20866;DHT22;10593;48.398;10.698;2024-01-30T06:09:57;3.10;53.50
20866;DHT22;10593;48.398;10.698;2024-01-30T06:12:23;3.00;53.40
20866;DHT22;10593;48.398;10.698;2024-01-30T06:14:48;3.00;53.40
20866;DHT22;10593;48.398;10.698;2024-01-30T06:17:14;3.00;53.30
20866;DHT22;10593;48.398;10.698;2024-01-30T06:19:41;3.00;53.30
20866;DHT22;10593;48.398;10.698;2024-01-30T06:22:07;3.00;53.40
20866;DHT22;10593;48.398;10.698;2024-01-30T06:24:32;3.00;53.40
20866;DHT22;10593;48.398;10.698;2024-01-30T06:26:59;3.00;53.40
20866;DHT22;10593;48.398;10.698;2024-01-30T06:29:25;3.00;53.50
20866;DHT22;10593;48.398;10.698;2024-01-30T06:31:52;2.90;53.40
20866;DHT22;10593;48.398;10.698;2024-01-30T06:34:17;3.00;53.50
20866;DHT22;10593;48.398;10.698;2024-01-30T06:36:43;3.00;53.40
20866;DHT22;10593;48.398;10.698;2024-01-30T06:39:09;2.90;53.30
20866;DHT22;10593;48.398;10.698;2024-01-30T06:41:34;2.90;53.30
20866;DHT22;10593;48.398;10.698;2024-01-30T06:44:02;2.90;53.30
20866;DHT22;10593;48.398;10.698;2024-01-30T06:46:29;2.90;53.20
20866;DHT22;10593;48.398;10.698;2024-01-30T06:48:55;2.90;53.10
20866;DHT22;10593;48.398;10.698;2024-01-30T06:51:20;2.90;53.10
20866;DHT22;10593;48.398;10.698;2024-01-30T06:53:46;2.90;53.10
20866;DHT22;10593;48.398;10.698;2024-01-30T06:56:12;2.90;53.10
20866;DHT22;10593;48.398;10.698;2024-01-30T06:58:37;2.80;53.10
20866;DHT22;10593;48.398;10.698;2024-01-30T07:01:03;2.80;53.10
20866;DHT22;10593;48.398;10.698;2024-01-30T07:03:29;2.80;53.10
20866;DHT22;10593;48.398;10.698;2024-01-30T07:05:54;2.80;53.10
20866;DHT22;10593;48.398;10.698;2024-01-30T07:08:20;2.70;53.00
20866;DHT22;10593;48.398;10.698;2024-01-30T07:10:46;2.70;53.60
20866;DHT22;10593;48.398;10.698;2024-01-30T07:13:13;2.70;53.10
20866;DHT22;10593;48.398;10.698;2024-01-30T07:15:38;2.70;53.20
20866;DHT22;10593;48.398;10.698;2024-01-30T07:18:05;2.70;53.40
20866;DHT22;10593;48.398;10.698;2024-01-30T07:20:31;2.70;53.50
20866;DHT22;10593;48.398;10.698;2024-01-30T07:22:58;2.70;53.60
20866;DHT22;10593;48.398;10.698;2024-01-30T07:25:24;2.60;53.70
20866;DHT22;10593;48.398;10.698;2024-01-30T07:27:52;2.60;53.70
20866;DHT22;10593;48.398;10.698;2024-01-30T07:30:19;2.60;53.90
20866;DHT22;10593;48.398;10.698;2024-01-30T07:32:46;2.70;54.10
20866;DHT22;10593;48.398;10.698;2024-01-30T07:35:13;2.70;54.10
20866;DHT22;10593;48.398;10.698;2024-01-30T07:37:39;2.60;54.20
20866;DHT22;10593;48.398;10.698;2024-01-30T07:40:05;2.70;54.40
20866;DHT22;10593;48.398;10.698;2024-01-30T07:42:32;2.70;54.60
20866;DHT22;10593;48.398;10.698;2024-01-30T07:44:59;2.70;54.60
20866;DHT22;10593;48.398;10.698;2024-01-30T07:47:25;2.70;54.70
20866;DHT22;10593;48.398;10.698;2024-01-30T07:49:51;2.80;54.80
20866;DHT22;10593;48.398;10.698;2024-01-30T07:52:16;2.80;54.90
20866;DHT22;10593;48.398;10.698;2024-01-30T07:54:42;2.80;55.00
20866;DHT22;10593;48.398;10.698;2024-01-30T07:57:08;2.90;55.10
20866;DHT22;10593;48.398;10.698;2024-01-30T07:59:33;2.90;55.20
20866;DHT22;10593;48.398;10.698;2024-01-30T08:01:59;2.90;55.40
20866;DHT22;10593;48.398;10.698;2024-01-30T08:04:25;2.90;55.50
20866;DHT22;10593;48.398;10.698;2024-01-30T08:06:50;3.00;55.90
20866;DHT22;10593;48.398;10.698;2024-01-30T08:09:16;3.00;56.00
20866;DHT22;10593;48.398;10.698;2024-01-30T08:11:42;3.00;56.10
20866;DHT22;10593;48.398;10.698;2024-01-30T08:14:07;3.10;56.20
20866;DHT22;10593;48.398;10.698;2024-01-30T08:16:33;3.10;56.30
20866;DHT22;10593;48.398;10.698;2024-01-30T08:18:58;3.10;56.40
20866;DHT22;10593;48.398;10.698;2024-01-30T08:21:24;3.20;56.60
20866;DHT22;10593;48.398;10.698;2024-01-30T08:23:50;3.20;56.60
20866;DHT22;10593;48.398;10.698;2024-01-30T08:26:15;3.20;56.60
20866;DHT22;10593;48.398;10.698;2024-01-30T08:28:41;3.30;56.70
20866;DHT22;10593;48.398;10.698;2024-01-30T08:31:07;3.30;56.70
20866;DHT22;10593;48.398;10.698;2024-01-30T08:33:32;3.30;56.70
20866;DHT22;10593;48.398;10.698;2024-01-30T08:35:58;3.40;56.80
20866;DHT22;10593;48.398;10.698;2024-01-30T08:38:23;3.40;56.90
20866;DHT22;10593;48.398;10.698;2024-01-30T08:40:49;3.40;56.90
20866;DHT22;10593;48.398;10.698;2024-01-30T08:43:15;3.40;56.90
20866;DHT22;10593;48.398;10.698;2024-01-30T08:45:40;3.50;57.20
20866;DHT22;10593;48.398;10.698;2024-01-30T08:48:07;3.50;57.20
20866;DHT22;10593;48.398;10.698;2024-01-30T08:50:33;3.50;57.30
20866;DHT22;10593;48.398;10.698;2024-01-30T08:52:59;3.50;57.40
20866;DHT22;10593;48.398;10.698;2024-01-30T08:55:25;3.60;57.40
20866;DHT22;10593;48.398;10.698;2024-01-30T08:57:51;3.60;57.50
20866;DHT22;10593;48.398;10.698;2024-01-30T09:00:17;3.60;57.70
20866;DHT22;10593;48.398;10.698;2024-01-30T09:02:43;3.60;57.80
20866;DHT22;10593;48.398;10.698;2024-01-30T09:05:09;3.70;58.00
20866;DHT22;10593;48.398;10.698;2024-01-30T09:07:34;3.70;58.10
20866;DHT22;10593;48.398;10.698;2024-01-30T09:10:00;3.70;58.00
20866;DHT22;10593;48.398;10.698;2024-01-30T09:12:26;3.80;58.10
20866;DHT22;10593;48.398;10.698;2024-01-30T09:14:51;3.80;58.10
20866;DHT22;10593;48.398;10.698;2024-01-30T09:17:17;3.90;58.30
20866;DHT22;10593;48.398;10.698;2024-01-30T09:19:43;3.90;58.40
20866;DHT22;10593;48.398;10.698;2024-01-30T09:22:08;3.90;58.40
20866;DHT22;10593;48.398;10.698;2024-01-30T09:24:34;4.00;58.50
20866;DHT22;10593;48.398;10.698;2024-01-30T09:27:00;4.00;58.70
20866;DHT22;10593;48.398;10.698;2024-01-30T09:29:25;4.10;58.80
20866;DHT22;10593;48.398;10.698;2024-01-30T09:31:51;4.10;58.90
20866;DHT22;10593;48.398;10.698;2024-01-30T09:34:17;4.20;59.10
20866;DHT22;10593;48.398;10.698;2024-01-30T09:36:43;4.20;59.20
20866;DHT22;10593;48.398;10.698;2024-01-30T09:39:08;4.20;59.10
20866;DHT22;10593;48.398;10.698;2024-01-30T09:41:45;4.30;59.10
20866;DHT22;10593;48.398;10.698;2024-01-30T09:44:16;4.30;59.30
20866;DHT22;10593;48.398;10.698;2024-01-30T09:46:43;4.40;59.30
20866;DHT22;10593;48.398;10.698;2024-01-30T09:49:12;4.50;59.40
20866;DHT22;10593;48.398;10.698;2024-01-30T09:51:39;4.50;59.40
20866;DHT22;10593;48.398;10.698;2024-01-30T09:54:07;4.60;59.50
20866;DHT22;10593;48.398;10.698;2024-01-30T09:56:33;4.60;59.60
20866;DHT22;10593;48.398;10.698;2024-01-30T09:58:59;4.70;59.80
20866;DHT22;10593;48.398;10.698;2024-01-30T10:01:25;4.70;59.90
20866;DHT22;10593;48.398;10.698;2024-01-30T10:03:53;4.80;60.10
20866;DHT22;10593;48.398;10.698;2024-01-30T10:06:21;4.90;60.40
20866;DHT22;10593;48.398;10.698;2024-01-30T10:08:48;4.90;60.40
20866;DHT22;10593;48.398;10.698;2024-01-30T10:11:14;5.00;60.50
20866;DHT22;10593;48.398;10.698;2024-01-30T10:13:39;5.10;60.60
20866;DHT22;10593;48.398;10.698;2024-01-30T10:16:06;5.10;60.80
20866;DHT22;10593;48.398;10.698;2024-01-30T10:18:32;5.20;60.90
20866;DHT22;10593;48.398;10.698;2024-01-30T10:20:59;5.30;60.90
20866;DHT22;10593;48.398;10.698;2024-01-30T10:23:25;5.30;60.70
20866;DHT22;10593;48.398;10.698;2024-01-30T10:25:51;5.40;60.60
20866;DHT22;10593;48.398;10.698;2024-01-30T10:28:17;5.50;60.40
20866;DHT22;10593;48.398;10.698;2024-01-30T10:30:43;5.50;60.30
20866;DHT22;10593;48.398;10.698;2024-01-30T10:33:09;5.60;60.40
20866;DHT22;10593;48.398;10.698;2024-01-30T10:35:35;5.60;60.50
20866;DHT22;10593;48.398;10.698;2024-01-30T10:38:00;5.70;60.50
20866;DHT22;10593;48.398;10.698;2024-01-30T10:40:28;5.80;60.70
20866;DHT22;10593;48.398;10.698;2024-01-30T10:42:55;5.90;60.60
20866;DHT22;10593;48.398;10.698;2024-01-30T10:45:22;5.90;60.40
20866;DHT22;10593;48.398;10.698;2024-01-30T10:47:54;6.00;60.20
20866;DHT22;10593;48.398;10.698;2024-01-30T10:50:24;6.00;59.90
20866;DHT22;10593;48.398;10.698;2024-01-30T10:52:51;6.10;59.60
20866;DHT22;10593;48.398;10.698;2024-01-30T10:55:18;6.20;59.50
20866;DHT22;10593;48.398;10.698;2024-01-30T10:57:44;6.30;59.60
20866;DHT22;10593;48.398;10.698;2024-01-30T11:00:12;6.30;59.50
20866;DHT22;10593;48.398;10.698;2024-01-30T11:02:43;6.40;59.60
20866;DHT22;10593;48.398;10.698;2024-01-30T11:05:10;6.50;59.60
20866;DHT22;10593;48.398;10.698;2024-01-30T11:07:39;6.60;59.70
20866;DHT22;10593;48.398;10.698;2024-01-30T11:10:08;6.60;59.40
20866;DHT22;10593;48.398;10.698;2024-01-30T11:12:39;6.70;59.50
20866;DHT22;10593;48.398;10.698;2024-01-30T11:15:12;6.80;59.40
20866;DHT22;10593;48.398;10.698;2024-01-30T11:20:23;6.90;58.80
20866;DHT22;10593;48.398;10.698;2024-01-30T11:22:52;7.00;58.80
20866;DHT22;10593;48.398;10.698;2024-01-30T11:25:21;7.00;58.70
20866;DHT22;10593;48.398;10.698;2024-01-30T11:27:50;7.10;58.60
20866;DHT22;10593;48.398;10.698;2024-01-30T11:30:28;7.10;58.40
20866;DHT22;10593;48.398;10.698;2024-01-30T11:35:26;7.20;58.20
20866;DHT22;10593;48.398;10.698;2024-01-30T11:37:52;7.30;58.20
20866;DHT22;10593;48.398;10.698;2024-01-30T11:40:19;7.30;58.10
20866;DHT22;10593;48.398;10.698;2024-01-30T11:42:47;7.30;58.20
20866;DHT22;10593;48.398;10.698;2024-01-30T11:45:14;7.40;58.60
20866;DHT22;10593;48.398;10.698;2024-01-30T11:47:39;7.40;58.80
20866;DHT22;10593;48.398;10.698;2024-01-30T11:50:05;7.40;59.00
20866;DHT22;10593;48.398;10.698;2024-01-30T11:52:33;7.50;59.30
20866;DHT22;10593;48.398;10.698;2024-01-30T11:55:00;7.50;59.60
20866;DHT22;10593;48.398;10.698;2024-01-30T11:57:27;7.50;59.70
20866;DHT22;10593;48.398;10.698;2024-01-30T11:59:52;7.60;59.60
20866;DHT22;10593;48.398;10.698;2024-01-30T12:02:18;7.60;59.80
20866;DHT22;10593;48.398;10.698;2024-01-30T12:04:44;7.70;59.80
20866;DHT22;10593;48.398;10.698;2024-01-30T12:07:11;7.70;60.00
20866;DHT22;10593;48.398;10.698;2024-01-30T12:09:37;7.80;60.70
20866;DHT22;10593;48.398;10.698;2024-01-30T12:12:03;7.80;60.00
20866;DHT22;10593;48.398;10.698;2024-01-30T12:14:28;7.80;60.00
20866;DHT22;10593;48.398;10.698;2024-01-30T12:16:54;7.80;59.90
20866;DHT22;10593;48.398;10.698;2024-01-30T12:19:24;7.90;59.90
20866;DHT22;10593;48.398;10.698;2024-01-30T12:21:54;7.90;59.80
20866;DHT22;10593;48.398;10.698;2024-01-30T12:24:22;8.00;59.90
20866;DHT22;10593;48.398;10.698;2024-01-30T12:26:48;8.00;60.10
20866;DHT22;10593;48.398;10.698;2024-01-30T12:29:14;8.00;60.00
20866;DHT22;10593;48.398;10.698;2024-01-30T12:31:42;8.10;59.80
20866;DHT22;10593;48.398;10.698;2024-01-30T12:34:09;8.10;59.70
20866;DHT22;10593;48.398;10.698;2024-01-30T12:36:35;8.10;59.60
20866;DHT22;10593;48.398;10.698;2024-01-30T12:39:01;8.10;59.50
20866;DHT22;10593;48.398;10.698;2024-01-30T12:41:27;8.20;59.60
20866;DHT22;10593;48.398;10.698;2024-01-30T12:43:54;8.20;59.60
20866;DHT22;10593;48.398;10.698;2024-01-30T12:46:20;8.20;59.50
20866;DHT22;10593;48.398;10.698;2024-01-30T12:48:45;8.30;59.60
20866;DHT22;10593;48.398;10.698;2024-01-30T12:51:11;8.30;59.50
20866;DHT22;10593;48.398;10.698;2024-01-30T12:53:37;8.30;59.50
20866;DHT22;10593;48.398;10.698;2024-01-30T12:56:03;8.40;59.50
20866;DHT22;10593;48.398;10.698;2024-01-30T12:58:28;8.40;59.40
20866;DHT22;10593;48.398;10.698;2024-01-30T13:00:54;8.50;59.30
20866;DHT22;10593;48.398;10.698;2024-01-30T13:03:20;8.50;59.00
20866;DHT22;10593;48.398;10.698;2024-01-30T13:05:46;8.50;59.40
20866;DHT22;10593;48.398;10.698;2024-01-30T13:08:11;8.60;58.80
20866;DHT22;10593;48.398;10.698;2024-01-30T13:10:37;8.60;58.70
20866;DHT22;10593;48.398;10.698;2024-01-30T13:13:03;8.70;58.40
20866;DHT22;10593;48.398;10.698;2024-01-30T13:15:28;8.70;58.20
20866;DHT22;10593;48.398;10.698;2024-01-30T13:17:54;8.80;58.10
20866;DHT22;10593;48.398;10.698;2024-01-30T13:20:20;8.80;57.90
20866;DHT22;10593;48.398;10.698;2024-01-30T13:22:48;8.90;57.80
20866;DHT22;10593;48.398;10.698;2024-01-30T13:25:16;8.90;57.80
20866;DHT22;10593;48.398;10.698;2024-01-30T13:27:42;8.90;57.80
20866;DHT22;10593;48.398;10.698;2024-01-30T13:30:08;9.00;57.80
20866;DHT22;10593;48.398;10.698;2024-01-30T13:32:37;9.00;57.70
20866;DHT22;10593;48.398;10.698;2024-01-30T13:35:03;9.00;57.60
20866;DHT22;10593;48.398;10.698;2024-01-30T13:37:29;9.10;57.70
20866;DHT22;10593;48.398;10.698;2024-01-30T13:39:55;9.20;57.70
20866;DHT22;10593;48.398;10.698;2024-01-30T13:42:22;9.20;57.40
20866;DHT22;10593;48.398;10.698;2024-01-30T13:44:48;9.20;57.40
20866;DHT22;10593;48.398;10.698;2024-01-30T13:47:13;9.30;57.20
20866;DHT22;10593;48.398;10.698;2024-01-30T13:49:40;9.30;57.10
20866;DHT22;10593;48.398;10.698;2024-01-30T13:52:05;9.40;56.80
20866;DHT22;10593;48.398;10.698;2024-01-30T13:54:31;9.40;56.60
20866;DHT22;10593;48.398;10.698;2024-01-30T13:56:57;9.40;56.40
20866;DHT22;10593;48.398;10.698;2024-01-30T13:59:23;9.50;56.30
20866;DHT22;10593;48.398;10.698;2024-01-30T14:01:51;9.50;56.30
20866;DHT22;10593;48.398;10.698;2024-01-30T14:04:17;9.60;56.20
20866;DHT22;10593;48.398;10.698;2024-01-30T14:06:42;9.60;56.00
20866;DHT22;10593;48.398;10.698;2024-01-30T14:09:08;9.60;56.00
20866;DHT22;10593;48.398;10.698;2024-01-30T14:11:35;9.60;55.90
20866;DHT22;10593;48.398;10.698;2024-01-30T14:14:01;9.70;55.90
20866;DHT22;10593;48.398;10.698;2024-01-30T14:16:26;9.70;55.60
20866;DHT22;10593;48.398;10.698;2024-01-30T14:18:54;9.70;55.50
20866;DHT22;10593;48.398;10.698;2024-01-30T14:21:19;9.70;55.30
20866;DHT22;10593;48.398;10.698;2024-01-30T14:23:45;9.80;55.30
20866;DHT22;10593;48.398;10.698;2024-01-30T14:26:12;9.80;55.30
20866;DHT22;10593;48.398;10.698;2024-01-30T14:28:38;9.80;55.30
20866;DHT22;10593;48.398;10.698;2024-01-30T14:31:03;9.80;55.70
20866;DHT22;10593;48.398;10.698;2024-01-30T14:33:29;9.80;55.80
20866;DHT22;10593;48.398;10.698;2024-01-30T14:35:55;9.80;55.70
20866;DHT22;10593;48.398;10.698;2024-01-30T14:38:20;9.80;55.40
20866;DHT22;10593;48.398;10.698;2024-01-30T14:40:46;9.90;55.30
20866;DHT22;10593;48.398;10.698;2024-01-30T14:43:12;9.80;55.30
20866;DHT22;10593;48.398;10.698;2024-01-30T14:45:37;9.80;55.80
20866;DHT22;10593;48.398;10.698;2024-01-30T14:48:03;9.80;55.30
20866;DHT22;10593;48.398;10.698;2024-01-30T14:50:29;9.80;55.30
20866;DHT22;10593;48.398;10.698;2024-01-30T14:52:54;9.80;55.20
20866;DHT22;10593;48.398;10.698;2024-01-30T14:55:20;9.80;55.00
20866;DHT22;10593;48.398;10.698;2024-01-30T14:57:46;9.80;55.00
20866;DHT22;10593;48.398;10.698;2024-01-30T15:00:12;9.80;54.90
20866;DHT22;10593;48.398;10.698;2024-01-30T15:02:39;9.80;54.90
20866;DHT22;10593;48.398;10.698;2024-01-30T15:05:05;9.80;54.90
20866;DHT22;10593;48.398;10.698;2024-01-30T15:07:31;9.70;54.70
20866;DHT22;10593;48.398;10.698;2024-01-30T15:09:56;9.70;54.60
20866;DHT22;10593;48.398;10.698;2024-01-30T15:12:22;9.70;54.60
20866;DHT22;10593;48.398;10.698;2024-01-30T15:14:47;9.70;54.50
20866;DHT22;10593;48.398;10.698;2024-01-30T15:17:17;9.70;54.50
20866;DHT22;10593;48.398;10.698;2024-01-30T15:19:43;9.70;54.40
20866;DHT22;10593;48.398;10.698;2024-01-30T15:22:09;9.70;54.40
20866;DHT22;10593;48.398;10.698;2024-01-30T15:24:35;9.70;54.30
20866;DHT22;10593;48.398;10.698;2024-01-30T15:27:01;9.70;54.30
20866;DHT22;10593;48.398;10.698;2024-01-30T15:29:26;9.60;54.20